createdAt,value
2019-06-27T00:00:04.351Z,1017.3
2019-06-27T00:01:06.892Z,1017.4
2019-06-27T00:02:09.392Z,1017.4
2019-06-27T00:03:11.484Z,1017.3
2019-06-27T00:04:13.554Z,1017.2
2019-06-27T00:05:15.696Z,1017.3
2019-06-27T00:06:17.801Z,1017.3
2019-06-27T00:07:19.940Z,1017.3
2019-06-27T00:08:22.098Z,1017.3
2019-06-27T00:09:24.521Z,1017.4
2019-06-27T00:10:27.353Z,1017.3
2019-06-27T00:11:29.849Z,1017.4
2019-06-27T00:12:32.402Z,1017.4
2019-06-27T00:13:34.485Z,1017.4
2019-06-27T00:14:36.567Z,1017.4
2019-06-27T00:15:39.044Z,1017.4
2019-06-27T00:16:41.828Z,1017.5
2019-06-27T00:17:44.735Z,1017.5
2019-06-27T00:18:46.772Z,1017.4
2019-06-27T00:19:48.893Z,1017.4
2019-06-27T00:20:51.019Z,1017.4
2019-06-27T00:21:53.104Z,1017.3
2019-06-27T00:22:55.655Z,1017.4
2019-06-27T00:23:57.736Z,1017.3
2019-06-27T00:25:00.161Z,1017.4
2019-06-27T00:26:02.597Z,1017.4
2019-06-27T00:27:04.743Z,1017.5
2019-06-27T00:28:07.089Z,1017.5
2019-06-27T00:29:09.167Z,1017.5
2019-06-27T00:30:11.310Z,1017.5
2019-06-27T00:31:13.738Z,1017.4
2019-06-27T00:32:15.901Z,1017.5
2019-06-27T00:33:17.989Z,1017.4
2019-06-27T00:34:20.077Z,1017.4
2019-06-27T00:35:22.152Z,1017.4
2019-06-27T00:36:24.233Z,1017.4
2019-06-27T00:37:26.394Z,1017.3
2019-06-27T00:38:28.478Z,1017.3
2019-06-27T00:39:30.908Z,1017.4
2019-06-27T00:40:33.023Z,1017.3
2019-06-27T00:41:35.438Z,1017.4
2019-06-27T00:42:37.586Z,1017.4
2019-06-27T00:43:39.684Z,1017.5
2019-06-27T00:44:41.807Z,1017.4
2019-06-27T00:45:43.895Z,1017.4
2019-06-27T00:46:46.314Z,1017.4
2019-06-27T00:47:48.401Z,1017.4
2019-06-27T00:48:50.496Z,1017.4
2019-06-27T00:49:53.024Z,1017.4
2019-06-27T00:50:55.110Z,1017.3
2019-06-27T00:51:57.263Z,1017.4
2019-06-27T00:52:59.354Z,1017.4
2019-06-27T00:54:01.510Z,1017.5
2019-06-27T00:55:03.934Z,1017.5
2019-06-27T00:56:06.026Z,1017.5
2019-06-27T00:57:14.841Z,1017.4
2019-06-27T00:58:17.075Z,1017.4
2019-06-27T00:59:20.343Z,1017.5
2019-06-27T01:00:22.422Z,1017.4
2019-06-27T01:01:24.540Z,1017.4
2019-06-27T01:02:26.988Z,1017.4
2019-06-27T01:03:29.094Z,1017.4
2019-06-27T01:04:31.587Z,1017.5
2019-06-27T01:05:34.024Z,1017.5
2019-06-27T01:06:36.183Z,1017.5
2019-06-27T01:07:38.267Z,1017.5
2019-06-27T01:08:40.347Z,1017.5
2019-06-27T01:09:42.482Z,1017.5
2019-06-27T01:10:44.929Z,1017.5
2019-06-27T01:11:47.364Z,1017.5
2019-06-27T01:12:50.123Z,1017.6
2019-06-27T01:13:52.176Z,1017.6
2019-06-27T01:14:54.269Z,1017.6
2019-06-27T01:15:56.357Z,1017.6
2019-06-27T01:16:58.512Z,1017.6
2019-06-27T01:18:00.872Z,1017.6
2019-06-27T01:19:03.730Z,1017.6
2019-06-27T01:20:06.099Z,1017.5
2019-06-27T01:21:08.191Z,1017.6
2019-06-27T01:22:10.324Z,1017.5
2019-06-27T01:23:12.420Z,1017.5
2019-06-27T01:24:14.882Z,1017.6
2019-06-27T01:25:16.909Z,1017.6
2019-06-27T01:26:19.053Z,1017.6
2019-06-27T01:27:30.617Z,1017.6
2019-06-27T01:28:32.705Z,1017.6
2019-06-27T01:29:35.661Z,1017.6
2019-06-27T01:30:37.756Z,1017.6
2019-06-27T01:31:39.897Z,1017.6
2019-06-27T01:32:41.977Z,1017.6
2019-06-27T01:33:44.112Z,1017.6
2019-06-27T01:34:46.886Z,1017.6
2019-06-27T01:35:49.347Z,1017.5
2019-06-27T01:36:51.846Z,1017.6
2019-06-27T01:37:54.210Z,1017.6
2019-06-27T01:38:56.743Z,1017.6
2019-06-27T01:39:59.097Z,1017.7
2019-06-27T01:41:01.185Z,1017.6
2019-06-27T01:42:03.280Z,1017.6
2019-06-27T01:43:05.743Z,1017.6
2019-06-27T01:44:08.194Z,1017.6
2019-06-27T01:45:10.280Z,1017.6
2019-06-27T01:46:12.804Z,1017.6
2019-06-27T01:47:14.950Z,1017.6
2019-06-27T01:48:17.341Z,1017.7
2019-06-27T01:49:19.498Z,1017.7
2019-06-27T01:50:21.540Z,1017.7
2019-06-27T01:51:23.627Z,1017.6
2019-06-27T01:52:25.709Z,1017.5
2019-06-27T01:53:27.806Z,1017.6
2019-06-27T01:54:29.893Z,1017.6
2019-06-27T01:55:31.970Z,1017.6
2019-06-27T01:56:34.115Z,1017.6
2019-06-27T01:57:47.410Z,1017.6
2019-06-27T01:58:49.841Z,1017.5
2019-06-27T01:59:51.955Z,1017.5
2019-06-27T02:00:54.023Z,1017.5
2019-06-27T02:01:56.141Z,1017.5
2019-06-27T02:02:58.228Z,1017.5
2019-06-27T02:04:00.983Z,1017.6
2019-06-27T02:05:03.023Z,1017.6
2019-06-27T02:06:05.156Z,1017.5
2019-06-27T02:07:07.341Z,1017.5
2019-06-27T02:08:09.829Z,1017.6
2019-06-27T02:09:12.251Z,1017.6
2019-06-27T02:10:14.352Z,1017.5
2019-06-27T02:11:16.498Z,1017.5
2019-06-27T02:12:18.587Z,1017.6
2019-06-27T02:13:21.959Z,1017.6
2019-06-27T02:14:24.468Z,1017.6
2019-06-27T02:15:26.821Z,1017.6
2019-06-27T02:16:28.962Z,1017.5
2019-06-27T02:17:31.093Z,1017.6
2019-06-27T02:18:33.235Z,1017.6
2019-06-27T02:19:35.709Z,1017.5
2019-06-27T02:20:38.136Z,1017.5
2019-06-27T02:21:40.547Z,1017.6
2019-06-27T02:22:42.972Z,1017.6
2019-06-27T02:23:45.122Z,1017.6
2019-06-27T02:24:47.191Z,1017.5
2019-06-27T02:25:49.341Z,1017.6
2019-06-27T02:26:51.438Z,1017.6
2019-06-27T02:28:04.554Z,1017.6
2019-06-27T02:29:06.811Z,1017.6
2019-06-27T02:30:09.204Z,1017.6
2019-06-27T02:31:12.200Z,1017.6
2019-06-27T02:32:14.933Z,1017.6
2019-06-27T02:33:18.345Z,1017.6
2019-06-27T02:34:20.994Z,1017.6
2019-06-27T02:35:23.386Z,1017.6
2019-06-27T02:36:25.547Z,1017.6
2019-06-27T02:37:27.917Z,1017.6
2019-06-27T02:38:30.436Z,1017.7
2019-06-27T02:39:32.485Z,1017.7
2019-06-27T02:40:35.283Z,1017.6
2019-06-27T02:41:37.375Z,1017.7
2019-06-27T02:42:39.772Z,1017.6
2019-06-27T02:43:42.333Z,1017.7
2019-06-27T02:44:44.433Z,1017.7
2019-06-27T02:45:46.901Z,1017.7
2019-06-27T02:46:49.027Z,1017.6
2019-06-27T02:47:51.361Z,1017.7
2019-06-27T02:48:53.767Z,1017.7
2019-06-27T02:49:55.875Z,1017.7
2019-06-27T02:50:58.302Z,1017.6
2019-06-27T02:52:00.814Z,1017.7
2019-06-27T02:53:02.961Z,1017.6
2019-06-27T02:54:05.468Z,1017.6
2019-06-27T02:55:08.217Z,1017.6
2019-06-27T02:56:10.716Z,1017.7
2019-06-27T02:57:13.119Z,1017.7
2019-06-27T02:58:32.459Z,1017.6
2019-06-27T02:59:35.302Z,1017.6
2019-06-27T03:00:37.443Z,1017.6
2019-06-27T03:01:40.206Z,1017.6
2019-06-27T03:02:42.868Z,1017.6
2019-06-27T03:03:45.690Z,1017.7
2019-06-27T03:04:48.863Z,1017.6
2019-06-27T03:05:51.570Z,1017.6
2019-06-27T03:06:53.639Z,1017.6
2019-06-27T03:07:55.791Z,1017.6
2019-06-27T03:08:57.866Z,1017.6
2019-06-27T03:10:00.514Z,1017.6
2019-06-27T03:11:03.330Z,1017.6
2019-06-27T03:12:05.812Z,1017.6
2019-06-27T03:13:08.571Z,1017.7
2019-06-27T03:14:11.362Z,1017.6
2019-06-27T03:15:13.939Z,1017.7
2019-06-27T03:16:15.992Z,1017.7
2019-06-27T03:17:18.101Z,1017.7
2019-06-27T03:18:20.137Z,1017.7
2019-06-27T03:19:22.227Z,1017.7
2019-06-27T03:20:24.820Z,1017.7
2019-06-27T03:21:26.935Z,1017.6
2019-06-27T03:22:29.410Z,1017.7
2019-06-27T03:23:31.510Z,1017.7
2019-06-27T03:24:33.871Z,1017.7
2019-06-27T03:25:35.968Z,1017.7
2019-06-27T03:26:38.094Z,1017.6
2019-06-27T03:27:40.523Z,1017.6
2019-06-27T03:28:54.119Z,1017.6
2019-06-27T03:29:57.317Z,1017.6
2019-06-27T03:30:59.494Z,1017.6
2019-06-27T03:32:02.050Z,1017.6
2019-06-27T03:33:04.792Z,1017.6
2019-06-27T03:34:07.621Z,1017.6
2019-06-27T03:35:10.052Z,1017.6
2019-06-27T03:36:13.009Z,1017.6
2019-06-27T03:37:15.850Z,1017.6
2019-06-27T03:38:18.004Z,1017.6
2019-06-27T03:39:20.375Z,1017.7
2019-06-27T03:40:22.407Z,1017.7
2019-06-27T03:41:25.786Z,1017.7
2019-06-27T03:42:28.341Z,1017.6
2019-06-27T03:43:30.444Z,1017.6
2019-06-27T03:44:32.478Z,1017.6
2019-06-27T03:45:34.962Z,1017.6
2019-06-27T03:46:37.440Z,1017.7
2019-06-27T03:47:40.164Z,1017.6
2019-06-27T03:48:42.930Z,1017.6
2019-06-27T03:49:45.342Z,1017.6
2019-06-27T03:50:47.440Z,1017.6
2019-06-27T03:51:49.548Z,1017.5
2019-06-27T03:52:52.084Z,1017.6
2019-06-27T03:53:54.435Z,1017.6
2019-06-27T03:54:56.582Z,1017.7
2019-06-27T03:55:59.236Z,1017.7
2019-06-27T03:57:01.293Z,1017.7
2019-06-27T03:58:04.272Z,1017.7
2019-06-27T03:59:14.008Z,1017.6
2019-06-27T04:00:16.513Z,1017.7
2019-06-27T04:01:19.189Z,1017.7
2019-06-27T04:02:21.913Z,1017.7
2019-06-27T04:03:24.597Z,1017.8
2019-06-27T04:04:26.966Z,1017.8
2019-06-27T04:05:29.377Z,1017.8
2019-06-27T04:06:31.747Z,1017.7
2019-06-27T04:07:34.267Z,1017.8
2019-06-27T04:08:36.726Z,1017.8
2019-06-27T04:09:39.640Z,1017.8
2019-06-27T04:10:42.313Z,1017.8
2019-06-27T04:11:44.444Z,1017.7
2019-06-27T04:12:47.186Z,1017.8
2019-06-27T04:13:49.267Z,1017.8
2019-06-27T04:14:51.765Z,1017.8
2019-06-27T04:15:54.459Z,1017.8
2019-06-27T04:16:57.273Z,1017.8
2019-06-27T04:17:59.750Z,1017.8
2019-06-27T04:19:01.857Z,1017.8
2019-06-27T04:20:04.282Z,1017.8
2019-06-27T04:21:06.900Z,1017.8
2019-06-27T04:22:09.383Z,1017.9
2019-06-27T04:23:11.453Z,1017.8
2019-06-27T04:24:13.512Z,1017.8
2019-06-27T04:25:16.074Z,1017.7
2019-06-27T04:26:18.486Z,1017.8
2019-06-27T04:27:20.916Z,1017.8
2019-06-27T04:28:23.398Z,1017.8
2019-06-27T04:29:34.665Z,1017.8
2019-06-27T04:30:37.479Z,1017.8
2019-06-27T04:31:39.620Z,1017.8
2019-06-27T04:32:41.987Z,1017.8
2019-06-27T04:33:44.342Z,1017.8
2019-06-27T04:34:46.801Z,1017.8
2019-06-27T04:35:49.178Z,1017.8
2019-06-27T04:36:51.323Z,1017.8
2019-06-27T04:37:53.417Z,1017.8
2019-06-27T04:38:56.133Z,1017.8
2019-06-27T04:39:58.569Z,1017.8
2019-06-27T04:41:01.081Z,1017.9
2019-06-27T04:42:04.021Z,1017.9
2019-06-27T04:43:06.745Z,1017.9
2019-06-27T04:44:09.126Z,1017.8
2019-06-27T04:45:12.191Z,1017.8
2019-06-27T04:46:14.617Z,1017.8
2019-06-27T04:47:17.470Z,1017.8
2019-06-27T04:48:19.992Z,1017.8
2019-06-27T04:49:22.174Z,1017.8
2019-06-27T04:50:24.845Z,1017.8
2019-06-27T04:51:28.009Z,1017.8
2019-06-27T04:52:30.517Z,1017.9
2019-06-27T04:53:33.002Z,1017.9
2019-06-27T04:54:35.707Z,1017.9
2019-06-27T04:55:38.115Z,1017.8
2019-06-27T04:56:40.231Z,1017.8
2019-06-27T04:57:42.832Z,1017.9
2019-06-27T04:58:45.227Z,1017.9
2019-06-27T04:59:54.447Z,1017.9
2019-06-27T05:00:56.599Z,1017.9
2019-06-27T05:01:58.701Z,1017.9
2019-06-27T05:03:01.080Z,1017.9
2019-06-27T05:04:03.225Z,1017.9
2019-06-27T05:05:05.681Z,1017.9
2019-06-27T05:06:08.046Z,1017.8
2019-06-27T05:07:10.593Z,1017.9
2019-06-27T05:08:15.078Z,1018
2019-06-27T05:09:17.603Z,1017.9
2019-06-27T05:10:19.693Z,1018
2019-06-27T05:11:21.870Z,1018
2019-06-27T05:12:24.274Z,1017.9
2019-06-27T05:13:26.372Z,1018
2019-06-27T05:14:28.512Z,1018
2019-06-27T05:15:34.618Z,1018
2019-06-27T05:16:37.108Z,1017.9
2019-06-27T05:17:39.636Z,1018
2019-06-27T05:18:41.778Z,1018
2019-06-27T05:19:44.276Z,1018
2019-06-27T05:20:46.379Z,1017.9
2019-06-27T05:21:48.498Z,1018
2019-06-27T05:22:50.584Z,1018
2019-06-27T05:23:52.716Z,1017.9
2019-06-27T05:24:55.096Z,1018
2019-06-27T05:25:57.185Z,1018
2019-06-27T05:26:59.687Z,1018
2019-06-27T05:28:02.065Z,1018
2019-06-27T05:29:04.239Z,1018
2019-06-27T05:30:10.762Z,1018.1
2019-06-27T05:31:12.952Z,1018.1
2019-06-27T05:32:15.328Z,1018.1
2019-06-27T05:33:17.701Z,1018
2019-06-27T05:34:19.876Z,1018.1
2019-06-27T05:35:21.960Z,1018
2019-06-27T05:36:24.934Z,1018.1
2019-06-27T05:37:27.422Z,1018.1
2019-06-27T05:38:29.493Z,1018
2019-06-27T05:39:31.542Z,1018.1
2019-06-27T05:40:33.639Z,1018.1
2019-06-27T05:41:35.787Z,1018
2019-06-27T05:42:37.825Z,1018
2019-06-27T05:43:40.267Z,1018.1
2019-06-27T05:44:42.347Z,1018
2019-06-27T05:45:44.452Z,1018.1
2019-06-27T05:46:46.890Z,1018
2019-06-27T05:47:48.970Z,1018.1
2019-06-27T05:48:51.133Z,1018
2019-06-27T05:49:53.846Z,1018
2019-06-27T05:50:55.985Z,1018.1
2019-06-27T05:51:58.080Z,1018.1
2019-06-27T05:53:00.135Z,1018.1
2019-06-27T05:54:02.300Z,1018.1
2019-06-27T05:55:04.773Z,1018
2019-06-27T05:56:06.917Z,1018.1
2019-06-27T05:57:09.393Z,1018.1
2019-06-27T05:58:11.485Z,1018.1
2019-06-27T05:59:13.958Z,1018.1
2019-06-27T06:00:29.581Z,1018.1
2019-06-27T06:01:32.263Z,1018
2019-06-27T06:02:35.657Z,1018
2019-06-27T06:03:37.859Z,1018
2019-06-27T06:04:40.601Z,1018
2019-06-27T06:05:42.748Z,1018
2019-06-27T06:06:45.735Z,1018
2019-06-27T06:07:47.828Z,1018
2019-06-27T06:08:50.357Z,1018
2019-06-27T06:09:52.453Z,1018.1
2019-06-27T06:10:54.905Z,1018
2019-06-27T06:11:56.982Z,1018.1
2019-06-27T06:12:59.035Z,1018.1
2019-06-27T06:14:01.185Z,1018.1
2019-06-27T06:15:04.130Z,1018
2019-06-27T06:16:06.276Z,1018
2019-06-27T06:17:08.382Z,1018.1
2019-06-27T06:18:10.534Z,1018
2019-06-27T06:19:12.662Z,1018
2019-06-27T06:20:15.126Z,1018
2019-06-27T06:21:17.287Z,1018
2019-06-27T06:22:20.118Z,1018
2019-06-27T06:23:22.562Z,1018
2019-06-27T06:24:24.697Z,1018
2019-06-27T06:25:27.110Z,1018
2019-06-27T06:26:29.821Z,1018
2019-06-27T06:27:31.917Z,1018
2019-06-27T06:28:34.100Z,1018
2019-06-27T06:29:36.466Z,1018.1
2019-06-27T06:30:45.385Z,1018
2019-06-27T06:31:49.765Z,1018
2019-06-27T06:32:52.197Z,1018.1
2019-06-27T06:33:54.302Z,1018
2019-06-27T06:34:56.393Z,1018
2019-06-27T06:35:58.515Z,1018
2019-06-27T06:37:01.062Z,1018
2019-06-27T06:38:04.154Z,1018
2019-06-27T06:39:06.280Z,1018
2019-06-27T06:40:08.386Z,1018
2019-06-27T06:41:10.815Z,1017.9
2019-06-27T06:42:13.281Z,1018
2019-06-27T06:43:17.529Z,1017.9
2019-06-27T06:44:20.873Z,1017.9
2019-06-27T06:45:25.854Z,1018
2019-06-27T06:46:34.337Z,1018
2019-06-27T06:47:42.620Z,1018
2019-06-27T06:48:53.601Z,1018
2019-06-27T06:50:09.015Z,1018.1
2019-06-27T06:51:18.549Z,1018
2019-06-27T06:52:25.651Z,1018.1
2019-06-27T06:53:49.902Z,1018.1
2019-06-27T06:55:05.544Z,1018
2019-06-27T06:56:19.141Z,1018
2019-06-27T06:57:28.473Z,1018
2019-06-27T06:58:38.485Z,1018
2019-06-27T06:59:44.724Z,1018
2019-06-27T07:01:02.614Z,1018.1
2019-06-27T07:02:05.431Z,1018.1
2019-06-27T07:03:07.799Z,1018.1
2019-06-27T07:04:10.567Z,1018.1
2019-06-27T07:05:12.656Z,1018.1
2019-06-27T07:06:14.791Z,1018.1
2019-06-27T07:07:17.153Z,1018.1
2019-06-27T07:08:19.591Z,1018.1
2019-06-27T07:09:22.139Z,1018.1
2019-06-27T07:10:24.652Z,1018.1
2019-06-27T07:11:26.829Z,1018.1
2019-06-27T07:12:28.927Z,1018.1
2019-06-27T07:13:31.496Z,1018.1
2019-06-27T07:14:33.599Z,1018.2
2019-06-27T07:15:36.499Z,1018.1
2019-06-27T07:16:39.062Z,1018.2
2019-06-27T07:17:41.499Z,1018.1
2019-06-27T07:18:43.908Z,1018.1
2019-06-27T07:19:45.961Z,1018.1
2019-06-27T07:20:49.079Z,1018.2
2019-06-27T07:21:51.191Z,1018.2
2019-06-27T07:22:53.286Z,1018.2
2019-06-27T07:23:56.010Z,1018.3
2019-06-27T07:24:58.822Z,1018.2
2019-06-27T07:26:01.860Z,1018.3
2019-06-27T07:27:03.957Z,1018.2
2019-06-27T07:28:06.086Z,1018.2
2019-06-27T07:29:08.552Z,1018.2
2019-06-27T07:30:11.407Z,1018.2
2019-06-27T07:31:18.663Z,1018.2
2019-06-27T07:32:20.880Z,1018.2
2019-06-27T07:33:22.988Z,1018.2
2019-06-27T07:34:25.122Z,1018.3
2019-06-27T07:35:27.853Z,1018.1
2019-06-27T07:36:30.619Z,1018.2
2019-06-27T07:37:33.344Z,1018.2
2019-06-27T07:38:35.854Z,1018.2
2019-06-27T07:39:38.331Z,1018.2
2019-06-27T07:40:40.443Z,1018.1
2019-06-27T07:41:42.903Z,1018.1
2019-06-27T07:42:45.827Z,1018.1
2019-06-27T07:43:47.969Z,1018.1
2019-06-27T07:44:50.113Z,1018.1
2019-06-27T07:45:52.937Z,1018.2
2019-06-27T07:46:56.204Z,1018.2
2019-06-27T07:47:58.634Z,1018.2
2019-06-27T07:49:00.805Z,1018.2
2019-06-27T07:50:03.211Z,1018.1
2019-06-27T07:51:05.992Z,1018.2
2019-06-27T07:52:08.452Z,1018.2
2019-06-27T07:53:10.982Z,1018.2
2019-06-27T07:54:13.121Z,1018.1
2019-06-27T07:55:15.203Z,1018.2
2019-06-27T07:56:17.780Z,1018.1
2019-06-27T07:57:19.898Z,1018.2
2019-06-27T07:58:22.039Z,1018.2
2019-06-27T07:59:24.583Z,1018.2
2019-06-27T08:00:27.089Z,1018.2
2019-06-27T08:01:36.167Z,1018.2
2019-06-27T08:02:38.630Z,1018.1
2019-06-27T08:03:40.756Z,1018.1
2019-06-27T08:04:42.857Z,1018.1
2019-06-27T08:05:45.395Z,1018.2
2019-06-27T08:06:47.936Z,1018.1
2019-06-27T08:07:50.334Z,1018.1
2019-06-27T08:08:53.527Z,1018.1
2019-06-27T08:09:55.605Z,1018.2
2019-06-27T08:10:57.747Z,1018.2
2019-06-27T08:12:00.264Z,1018.2
2019-06-27T08:13:02.730Z,1018.2
2019-06-27T08:14:05.509Z,1018.2
2019-06-27T08:15:07.642Z,1018.2
2019-06-27T08:16:09.839Z,1018.2
2019-06-27T08:17:11.943Z,1018.1
2019-06-27T08:18:14.490Z,1018.2
2019-06-27T08:19:16.933Z,1018.2
2019-06-27T08:20:18.971Z,1018.3
2019-06-27T08:21:21.396Z,1018.3
2019-06-27T08:22:24.052Z,1018.2
2019-06-27T08:23:42.003Z,1018.2
2019-06-27T08:24:44.360Z,1018.3
2019-06-27T08:25:46.521Z,1018.2
2019-06-27T08:26:48.645Z,1018.2
2019-06-27T08:27:50.797Z,1018.3
2019-06-27T08:28:52.932Z,1018.2
2019-06-27T08:29:55.114Z,1018.3
2019-06-27T08:30:57.265Z,1018.3
2019-06-27T08:31:59.364Z,1018.3
2019-06-27T08:33:02.476Z,1018.3
2019-06-27T08:34:05.593Z,1018.2
2019-06-27T08:35:08.107Z,1018.3
2019-06-27T08:36:11.156Z,1018.3
2019-06-27T08:37:13.292Z,1018.3
2019-06-27T08:38:15.821Z,1018.3
2019-06-27T08:39:17.911Z,1018.3
2019-06-27T08:40:20.381Z,1018.3
2019-06-27T08:41:23.097Z,1018.3
2019-06-27T08:42:25.184Z,1018.4
2019-06-27T08:43:29.732Z,1018.3
2019-06-27T08:44:35.378Z,1018.3
2019-06-27T08:45:41.355Z,1018.3
2019-06-27T08:46:47.485Z,1018.3
2019-06-27T08:47:49.584Z,1018.3
2019-06-27T08:48:51.960Z,1018.3
2019-06-27T08:49:54.072Z,1018.4
2019-06-27T08:50:56.163Z,1018.4
2019-06-27T08:51:58.526Z,1018.3
2019-06-27T08:53:01.832Z,1018.3
2019-06-27T08:54:04.246Z,1018.3
2019-06-27T08:55:07.145Z,1018.3
2019-06-27T08:56:09.260Z,1018.3
2019-06-27T08:57:11.818Z,1018.3
2019-06-27T08:58:13.988Z,1018.3
2019-06-27T08:59:16.111Z,1018.3
2019-06-27T09:00:18.277Z,1018.3
2019-06-27T09:01:20.350Z,1018.4
2019-06-27T09:02:22.420Z,1018.3
2019-06-27T09:03:24.882Z,1018.3
2019-06-27T09:04:27.571Z,1018.3
2019-06-27T09:05:30.729Z,1018.3
2019-06-27T09:06:32.829Z,1018.3
2019-06-27T09:07:34.967Z,1018.2
2019-06-27T09:08:37.372Z,1018.2
2019-06-27T09:09:40.109Z,1018.2
2019-06-27T09:10:42.534Z,1018.2
2019-06-27T09:11:44.957Z,1018.2
2019-06-27T09:12:47.387Z,1018.2
2019-06-27T09:13:49.859Z,1018.2
2019-06-27T09:14:52.014Z,1018.2
2019-06-27T09:15:54.124Z,1018.2
2019-06-27T09:16:56.556Z,1018.2
2019-06-27T09:17:58.709Z,1018.2
2019-06-27T09:19:01.129Z,1018.2
2019-06-27T09:20:03.711Z,1018.1
2019-06-27T09:21:06.472Z,1018.1
2019-06-27T09:22:08.613Z,1018.1
2019-06-27T09:23:10.750Z,1018.2
2019-06-27T09:24:13.232Z,1018.1
2019-06-27T09:25:15.429Z,1018.1
2019-06-27T09:26:18.177Z,1018
2019-06-27T09:27:21.047Z,1018.1
2019-06-27T09:28:23.147Z,1018.1
2019-06-27T09:29:25.880Z,1018.1
2019-06-27T09:30:28.046Z,1018
2019-06-27T09:31:30.767Z,1018
2019-06-27T09:32:33.207Z,1018.1
2019-06-27T09:33:35.299Z,1018
2019-06-27T09:34:37.823Z,1018.1
2019-06-27T09:35:39.916Z,1018.2
2019-06-27T09:36:42.456Z,1018.1
2019-06-27T09:37:44.560Z,1018.2
2019-06-27T09:38:46.674Z,1018.1
2019-06-27T09:39:49.316Z,1018.2
2019-06-27T09:40:51.476Z,1018.2
2019-06-27T09:41:53.845Z,1018.1
2019-06-27T09:42:56.035Z,1018.2
2019-06-27T09:43:58.197Z,1018
2019-06-27T09:45:00.376Z,1018.1
2019-06-27T09:46:02.510Z,1018.1
2019-06-27T09:47:05.054Z,1018.1
2019-06-27T09:48:07.612Z,1018
2019-06-27T09:49:10.394Z,1018.2
2019-06-27T09:50:12.904Z,1018.1
2019-06-27T09:51:15.030Z,1018.2
2019-06-27T09:52:17.488Z,1018.2
2019-06-27T09:53:20.312Z,1018.2
2019-06-27T09:54:22.665Z,1018.2
2019-06-27T09:55:25.143Z,1018.2
2019-06-27T09:56:27.558Z,1018.2
2019-06-27T09:57:30.244Z,1018.1
2019-06-27T09:58:33.091Z,1018.2
2019-06-27T09:59:35.273Z,1018.1
2019-06-27T10:00:37.641Z,1018.2
2019-06-27T10:01:40.063Z,1018.1
2019-06-27T10:02:43.230Z,1018.2
2019-06-27T10:03:45.324Z,1018.2
2019-06-27T10:04:48.458Z,1018.3
2019-06-27T10:05:50.613Z,1018.1
2019-06-27T10:06:52.773Z,1018.2
2019-06-27T10:07:54.922Z,1018.3
2019-06-27T10:08:57.226Z,1018.2
2019-06-27T10:09:59.351Z,1018.1
2019-06-27T10:11:01.481Z,1018.1
2019-06-27T10:12:03.677Z,1018.1
2019-06-27T10:13:06.066Z,1017.9
2019-06-27T10:14:08.465Z,1018.2
2019-06-27T10:15:10.583Z,1018.1
2019-06-27T10:16:12.995Z,1018.2
2019-06-27T10:17:15.358Z,1018.2
2019-06-27T10:18:17.457Z,1018.2
2019-06-27T10:19:19.627Z,1018.2
2019-06-27T10:20:22.461Z,1018.2
2019-06-27T10:21:24.584Z,1018.2
2019-06-27T10:22:27.000Z,1018.3
2019-06-27T10:23:29.173Z,1018.3
2019-06-27T10:24:31.673Z,1018.3
2019-06-27T10:25:37.219Z,1018.2
2019-06-27T10:26:40.736Z,1018.3
2019-06-27T10:27:42.857Z,1018.3
2019-06-27T10:28:44.909Z,1018.3
2019-06-27T10:29:47.797Z,1018.3
2019-06-27T10:30:50.310Z,1018.2
2019-06-27T10:31:52.443Z,1018.3
2019-06-27T10:33:00.614Z,1018.3
2019-06-27T10:34:02.806Z,1018.3
2019-06-27T10:35:04.943Z,1018.2
2019-06-27T10:36:07.046Z,1018.3
2019-06-27T10:37:09.171Z,1018.4
2019-06-27T10:38:11.873Z,1018.3
2019-06-27T10:39:14.439Z,1018.3
2019-06-27T10:40:16.898Z,1018.3
2019-06-27T10:41:19.333Z,1018.3
2019-06-27T10:42:21.730Z,1018.4
2019-06-27T10:43:23.853Z,1018.4
2019-06-27T10:44:25.945Z,1018.3
2019-06-27T10:45:28.283Z,1018.4
2019-06-27T10:46:30.477Z,1018.3
2019-06-27T10:47:32.922Z,1018.4
2019-06-27T10:48:35.044Z,1018.4
2019-06-27T10:49:37.580Z,1018.4
2019-06-27T10:50:40.001Z,1018.3
2019-06-27T10:51:42.142Z,1018.3
2019-06-27T10:52:44.258Z,1018.3
2019-06-27T10:53:46.448Z,1018.4
2019-06-27T10:54:48.569Z,1018.4
2019-06-27T10:55:51.072Z,1018.4
2019-06-27T10:56:53.525Z,1018.4
2019-06-27T10:57:56.034Z,1018.5
2019-06-27T10:58:58.742Z,1018.4
2019-06-27T11:00:00.904Z,1018.4
2019-06-27T11:01:04.532Z,1018.4
2019-06-27T11:02:06.939Z,1018.4
2019-06-27T11:03:16.485Z,1018.4
2019-06-27T11:04:19.076Z,1018.4
2019-06-27T11:05:21.628Z,1018.3
2019-06-27T11:06:23.811Z,1018.4
2019-06-27T11:07:25.913Z,1018.3
2019-06-27T11:08:28.020Z,1018.3
2019-06-27T11:09:30.169Z,1018.3
2019-06-27T11:10:32.933Z,1018.3
2019-06-27T11:11:35.411Z,1018.3
2019-06-27T11:12:37.825Z,1018.3
2019-06-27T11:13:40.264Z,1018.2
2019-06-27T11:14:59.803Z,1018.3
2019-06-27T11:16:02.444Z,1018.2
2019-06-27T11:17:04.568Z,1018.2
2019-06-27T11:18:06.664Z,1018.2
2019-06-27T11:19:08.836Z,1018.2
2019-06-27T11:20:10.978Z,1018.2
2019-06-27T11:21:17.848Z,1018.3
2019-06-27T11:22:19.963Z,1018.2
2019-06-27T11:23:22.511Z,1018.2
2019-06-27T11:24:24.972Z,1018.2
2019-06-27T11:25:27.746Z,1018.1
2019-06-27T11:26:29.981Z,1018.2
2019-06-27T11:27:32.534Z,1018.3
2019-06-27T11:28:35.317Z,1018.2
2019-06-27T11:29:37.459Z,1018.2
2019-06-27T11:30:39.555Z,1018.2
2019-06-27T11:31:42.076Z,1018.1
2019-06-27T11:32:44.302Z,1018
2019-06-27T11:33:46.474Z,1018.1
2019-06-27T11:34:48.560Z,1018.2
2019-06-27T11:35:51.313Z,1018.1
2019-06-27T11:36:53.407Z,1018
2019-06-27T11:37:55.545Z,1018.1
2019-06-27T11:38:57.719Z,1018.2
2019-06-27T11:39:59.811Z,1018.1
2019-06-27T11:41:02.641Z,1018.1
2019-06-27T11:42:04.766Z,1018.1
2019-06-27T11:43:07.106Z,1018.1
2019-06-27T11:44:09.553Z,1018.1
2019-06-27T11:45:11.693Z,1018.1
2019-06-27T11:46:13.852Z,1018.1
2019-06-27T11:47:15.906Z,1018.1
2019-06-27T11:48:18.347Z,1018.1
2019-06-27T11:49:20.461Z,1018.1
2019-06-27T11:50:23.586Z,1018.2
2019-06-27T11:51:26.057Z,1018.1
2019-06-27T11:52:28.167Z,1018.1
2019-06-27T11:53:30.330Z,1018.1
2019-06-27T11:54:32.374Z,1018
2019-06-27T11:55:34.512Z,1018
2019-06-27T11:56:36.618Z,1018
2019-06-27T11:57:38.706Z,1018.1
2019-06-27T11:58:40.812Z,1018.1
2019-06-27T11:59:42.927Z,1018.1
2019-06-27T12:00:45.028Z,1018
2019-06-27T12:01:47.134Z,1018
2019-06-27T12:02:49.320Z,1018.1
2019-06-27T12:03:51.865Z,1018
2019-06-27T12:04:54.010Z,1018
2019-06-27T12:05:56.104Z,1018
2019-06-27T12:06:58.209Z,1018
2019-06-27T12:08:00.895Z,1018
2019-06-27T12:09:03.999Z,1018
2019-06-27T12:10:06.832Z,1018
2019-06-27T12:11:09.511Z,1018
2019-06-27T12:12:11.972Z,1017.9
2019-06-27T12:13:14.111Z,1017.9
2019-06-27T12:14:16.230Z,1017.9
2019-06-27T12:15:18.718Z,1017.8
2019-06-27T12:16:21.441Z,1017.9
2019-06-27T12:17:23.535Z,1017.8
2019-06-27T12:18:25.689Z,1017.8
2019-06-27T12:19:27.798Z,1017.8
2019-06-27T12:20:29.959Z,1017.8
2019-06-27T12:21:32.373Z,1017.7
2019-06-27T12:22:34.879Z,1017.8
2019-06-27T12:23:37.046Z,1017.8
2019-06-27T12:24:39.455Z,1017.8
2019-06-27T12:25:42.125Z,1017.8
2019-06-27T12:26:44.535Z,1017.8
2019-06-27T12:27:46.962Z,1017.8
2019-06-27T12:28:49.087Z,1017.8
2019-06-27T12:29:51.418Z,1017.8
2019-06-27T12:30:53.503Z,1017.7
2019-06-27T12:31:55.921Z,1017.8
2019-06-27T12:32:58.304Z,1017.7
2019-06-27T12:34:07.912Z,1017.7
2019-06-27T12:35:10.075Z,1017.6
2019-06-27T12:36:12.303Z,1017.7
2019-06-27T12:37:14.625Z,1017.6
2019-06-27T12:38:16.801Z,1017.7
2019-06-27T12:39:18.905Z,1017.7
2019-06-27T12:40:21.079Z,1017.7
2019-06-27T12:41:23.571Z,1017.7
2019-06-27T12:42:33.093Z,1017.6
2019-06-27T12:43:35.494Z,1017.6
2019-06-27T12:44:37.607Z,1017.6
2019-06-27T12:45:39.775Z,1017.5
2019-06-27T12:46:41.868Z,1017.5
2019-06-27T12:47:44.586Z,1017.6
2019-06-27T12:48:47.456Z,1017.6
2019-06-27T12:50:03.058Z,1017.6
2019-06-27T12:51:05.500Z,1017.6
2019-06-27T12:52:07.609Z,1017.5
2019-06-27T12:53:09.761Z,1017.5
2019-06-27T12:54:11.860Z,1017.5
2019-06-27T12:55:14.042Z,1017.5
2019-06-27T12:56:16.142Z,1017.4
2019-06-27T12:57:19.397Z,1017.5
2019-06-27T12:58:22.239Z,1017.4
2019-06-27T12:59:24.746Z,1017.4
2019-06-27T13:00:27.281Z,1017.5
2019-06-27T13:01:29.831Z,1017.5
2019-06-27T13:02:32.312Z,1017.4
2019-06-27T13:03:35.079Z,1017.5
2019-06-27T13:04:37.436Z,1017.4
2019-06-27T13:05:40.654Z,1017.5
2019-06-27T13:06:42.770Z,1017.4
2019-06-27T13:07:44.948Z,1017.4
2019-06-27T13:08:47.443Z,1017.4
2019-06-27T13:09:50.680Z,1017.4